Time;durP1;ratioP1;P1;durP2;ratioP2;P2;SDS_P1;SDS_P2;PMS_P1;PMS_P2;Temp;Humidity;BMP_temperature;BMP_pressure;BME280_temperature;BME280_humidity;BME280_pressure;Samples;Min_cycle;Max_cycle;Signal;HPM_P1;HPM_P2
2022/12/25 00:00:30;;;;;;;10.97;5.20;;;;;;;4.45;100.00;101603.25;4966941;28;20589;-73
2022/12/25 00:02:56;;;;;;;12.20;4.50;;;;;;;4.37;100.00;101604.50;4967787;28;20189;-73
2022/12/25 00:05:21;;;;;;;12.10;4.70;;;;;;;4.23;100.00;101610.47;4964617;28;20312;-73
2022/12/25 00:07:47;;;;;;;11.57;5.10;;;;;;;4.20;100.00;101610.28;4965874;28;20215;-74
2022/12/25 00:10:12;;;;;;;11.90;4.97;;;;;;;4.13;100.00;101609.06;4968900;28;20288;-73
2022/12/25 00:12:38;;;;;;;12.47;6.17;;;;;;;4.02;100.00;101617.72;4969296;28;20217;-74
2022/12/25 00:15:04;;;;;;;12.90;6.00;;;;;;;4.00;100.00;101608.28;4969187;28;20226;-73
2022/12/25 00:17:30;;;;;;;9.93;4.77;;;;;;;3.93;100.00;101616.31;4968617;28;20227;-73
2022/12/25 00:19:55;;;;;;;10.30;4.73;;;;;;;3.91;100.00;101623.81;4966327;28;20725;-74
2022/12/25 00:22:21;;;;;;;8.87;5.17;;;;;;;3.89;100.00;101634.63;4962327;28;20214;-73
2022/12/25 00:24:47;;;;;;;27.83;5.80;;;;;;;3.81;100.00;101634.19;4966834;28;20200;-73
2022/12/25 00:27:12;;;;;;;17.43;4.93;;;;;;;3.74;100.00;101638.81;4968427;28;20192;-73
2022/12/25 00:29:39;;;;;;;16.03;5.20;;;;;;;3.67;100.00;101646.81;4935266;28;20232;-73
2022/12/25 00:32:04;;;;;;;7.90;4.23;;;;;;;3.63;100.00;101637.31;4967028;28;20247;-73
2022/12/25 00:34:30;;;;;;;8.90;4.43;;;;;;;3.61;100.00;101642.28;4963457;28;20220;-73
2022/12/25 00:36:55;;;;;;;13.27;4.33;;;;;;;3.63;100.00;101645.75;4962117;28;20194;-73
2022/12/25 00:39:21;;;;;;;9.07;4.13;;;;;;;3.56;100.00;101651.25;4966511;28;20267;-73
2022/12/25 00:44:48;;;;;;;28.73;4.27;;;;;;;3.39;100.00;101661.13;4928277;29;20236;-73
2022/12/25 00:47:15;;;;;;;7.70;3.57;;;;;;;3.25;100.00;101664.47;4951677;28;20685;-73
2022/12/25 00:49:41;;;;;;;19.43;4.47;;;;;;;3.19;100.00;101659.94;4963631;28;20751;-72
2022/12/25 00:52:07;;;;;;;8.17;4.20;;;;;;;3.11;100.00;101658.59;4964795;28;20209;-72
2022/12/25 00:54:33;;;;;;;8.40;3.70;;;;;;;3.05;100.00;101647.22;4964869;28;20311;-72
2022/12/25 00:56:58;;;;;;;11.47;4.57;;;;;;;3.10;100.00;101648.38;4969393;28;20634;-72
2022/12/25 00:59:24;;;;;;;14.90;4.10;;;;;;;3.10;100.00;101645.84;4966424;28;20771;-72
2022/12/25 01:01:49;;;;;;;7.27;3.63;;;;;;;3.06;100.00;101638.84;4965134;28;20189;-72
2022/12/25 01:04:14;;;;;;;8.87;3.80;;;;;;;3.02;100.00;101631.84;4962599;28;20208;-71
2022/12/25 01:06:40;;;;;;;40.67;5.17;;;;;;;2.97;100.00;101636.63;4944963;28;20275;-72
2022/12/25 01:11:49;;;;;;;9.50;2.90;;;;;;;2.86;100.00;101645.22;4963927;28;20235;-72
2022/12/25 01:14:15;;;;;;;9.33;3.27;;;;;;;2.87;100.00;101646.97;4963735;28;20319;-71
2022/12/25 01:16:42;;;;;;;22.20;4.30;;;;;;;2.89;100.00;101649.59;4966931;28;20196;-72
2022/12/25 01:19:08;;;;;;;34.27;4.77;;;;;;;2.94;100.00;101650.75;4948092;28;20212;-72
2022/12/25 01:21:33;;;;;;;23.60;5.30;;;;;;;3.01;100.00;101641.09;4965071;28;20726;-72
2022/12/25 01:23:59;;;;;;;16.30;5.13;;;;;;;3.02;100.00;101640.31;4947613;28;20199;-72
2022/12/25 01:26:26;;;;;;;24.17;5.10;;;;;;;3.01;100.00;101643.63;4968596;28;20196;-72
2022/12/25 01:28:52;;;;;;;11.17;4.80;;;;;;;2.98;100.00;101651.00;4965524;28;20629;-71
2022/12/25 01:31:19;;;;;;;24.43;4.93;;;;;;;2.97;100.00;101655.97;4964185;28;20195;-72
2022/12/25 01:33:46;;;;;;;33.17;5.47;;;;;;;2.95;100.00;101663.47;4958816;28;20833;-72
2022/12/25 01:36:17;;;;;;;28.73;5.27;;;;;;;2.92;100.00;101660.75;4967098;28;20364;-71
2022/12/25 01:38:43;;;;;;;18.00;5.13;;;;;;;2.83;100.00;101666.88;4967497;28;20220;-72
2022/12/25 01:41:10;;;;;;;27.60;5.57;;;;;;;2.81;100.00;101676.91;4965712;28;20222;-71
2022/12/25 01:43:58;;;;;;;25.57;5.73;;;;;;;2.81;100.00;101676.91;4972264;28;20195;-73
2022/12/25 01:46:24;;;;;;;23.60;5.77;;;;;;;2.74;100.00;101684.88;4963774;28;20276;-73
2022/12/25 01:48:50;;;;;;;23.67;5.77;;;;;;;2.69;100.00;101677.78;4963786;28;20204;-73
2022/12/25 01:51:27;;;;;;;13.87;5.20;;;;;;;2.68;100.00;101683.63;4965530;28;20197;-72
2022/12/25 01:53:56;;;;;;;10.77;4.77;;;;;;;2.66;100.00;101683.50;4972188;28;20291;-73
2022/12/25 01:56:21;;;;;;;13.90;5.50;;;;;;;2.66;100.00;101687.72;4967161;28;20184;-72
2022/12/25 01:58:47;;;;;;;13.87;5.27;;;;;;;2.67;100.00;101685.25;4970476;28;20692;-73
2022/12/25 02:01:12;;;;;;;9.83;6.13;;;;;;;2.68;100.00;101693.72;4971493;28;20197;-73
2022/12/25 02:03:41;;;;;;;22.37;5.57;;;;;;;2.67;100.00;101702.09;4971591;28;20189;-72
2022/12/25 02:06:07;;;;;;;15.07;5.53;;;;;;;2.63;100.00;101705.19;4963670;28;20215;-72
2022/12/25 02:08:33;;;;;;;20.63;5.40;;;;;;;2.54;100.00;101708.03;4967718;28;20211;-72
2022/12/25 02:10:58;;;;;;;13.90;5.30;;;;;;;2.50;100.00;101716.19;4968735;28;20678;-72
2022/12/25 02:13:24;;;;;;;17.40;5.37;;;;;;;2.44;100.00;101712.38;4969292;28;20209;-72
2022/12/25 02:16:12;;;;;;;10.67;5.10;;;;;;;2.47;100.00;101712.53;4966445;28;20201;-72
2022/12/25 02:18:49;;;;;;;14.77;5.63;;;;;;;2.48;100.00;101705.06;4966213;28;20222;-71
2022/12/25 02:21:58;;;;;;;13.70;5.33;;;;;;;2.46;100.00;101703.22;4970996;28;20208;-71
2022/12/25 02:24:52;;;;;;;18.63;5.37;;;;;;;2.44;100.00;101720.81;4970496;28;20196;-71
2022/12/25 02:27:48;;;;;;;12.50;5.17;;;;;;;2.40;100.00;101716.34;4965641;28;20192;-71
2022/12/25 02:30:13;;;;;;;15.03;5.43;;;;;;;2.44;100.00;101718.28;4944295;28;20208;-71
2022/12/25 02:32:39;;;;;;;16.63;5.83;;;;;;;2.45;100.00;101719.16;4967681;28;20216;-71
2022/12/25 02:35:15;;;;;;;16.57;5.70;;;;;;;2.47;100.00;101717.59;4968000;28;20197;-71
2022/12/25 02:38:15;;;;;;;15.27;5.93;;;;;;;2.53;100.00;101721.41;4963790;28;20218;-71
2022/12/25 02:40:50;;;;;;;44.90;7.53;;;;;;;2.58;100.00;101721.72;4959594;28;20295;-71
2022/12/25 03:08:39;;;;;;;51.23;11.43;;;;;;;3.03;100.00;101717.06;4966017;28;20227;-72
2022/12/25 03:16:54;;;;;;;34.97;12.73;;;;;;;3.16;100.00;101715.41;4965650;28;20207;-72
2022/12/25 03:27:43;;;;;;;72.33;13.07;;;;;;;3.26;100.00;101715.19;4963414;28;20204;-72
2022/12/25 03:33:15;;;;;;;44.13;12.60;;;;;;;3.31;100.00;101715.47;4966355;28;20617;-73
2022/12/25 03:36:06;;;;;;;57.37;13.73;;;;;;;3.36;100.00;101711.59;4965513;28;20215;-72
2022/12/25 04:37:38;;;;;;;50.30;15.57;;;;;;;3.65;100.00;101682.19;4967729;28;20201;-72
2022/12/25 04:40:05;;;;;;;57.33;16.97;;;;;;;3.67;100.00;101670.50;4962129;28;20208;-72
2022/12/25 04:42:30;;;;;;;50.60;17.27;;;;;;;3.68;100.00;101666.31;4965569;28;20206;-72
2022/12/25 04:44:56;;;;;;;56.80;17.77;;;;;;;3.67;100.00;101664.53;4962512;28;20204;-72
2022/12/25 04:47:21;;;;;;;61.20;18.43;;;;;;;3.67;100.00;101664.53;4965645;28;20709;-72
2022/12/25 04:49:47;;;;;;;37.23;17.70;;;;;;;3.72;100.00;101665.72;4970456;28;20212;-72
2022/12/25 04:52:12;;;;;;;48.67;18.03;;;;;;;3.74;100.00;101667.56;4958445;28;20708;-72
2022/12/25 04:54:38;;;;;;;44.07;19.20;;;;;;;3.76;100.00;101644.81;4961687;28;20666;-72
2022/12/25 04:57:03;;;;;;;44.50;19.23;;;;;;;3.79;100.00;101656.03;4963016;28;20204;-72
2022/12/25 04:59:29;;;;;;;48.70;19.63;;;;;;;3.83;100.00;101660.50;4966438;28;20258;-72
2022/12/25 05:01:54;;;;;;;48.97;19.47;;;;;;;3.88;100.00;101653.16;4962639;28;20216;-72
2022/12/25 05:04:20;;;;;;;49.00;19.30;;;;;;;3.91;100.00;101645.75;4945790;28;20674;-72
2022/12/25 05:06:45;;;;;;;48.17;20.07;;;;;;;3.91;100.00;101645.75;4964544;28;20597;-72
2022/12/25 05:09:10;;;;;;;42.97;19.07;;;;;;;3.92;100.00;101645.81;4944773;28;20217;-72
2022/12/25 05:11:36;;;;;;;47.67;19.57;;;;;;;3.92;100.00;101647.50;4958858;28;20273;-72
2022/12/25 05:14:01;;;;;;;44.10;18.70;;;;;;;3.95;100.00;101640.09;4960449;28;20316;-72
2022/12/25 05:16:27;;;;;;;51.77;19.03;;;;;;;3.97;100.00;101635.97;4964743;28;20193;-72
2022/12/25 05:18:52;;;;;;;44.23;18.60;;;;;;;3.97;100.00;101624.19;4962393;28;20223;-73
2022/12/25 05:21:18;;;;;;;46.30;20.00;;;;;;;3.99;100.00;101622.59;4965050;28;20283;-72
2022/12/25 05:23:49;;;;;;;45.63;19.00;;;;;;;3.97;100.00;101618.22;4962599;28;20192;-72
2022/12/25 05:26:17;;;;;;;40.53;17.87;;;;;;;3.98;100.00;101622.50;4964020;28;20189;-72
2022/12/25 05:28:42;;;;;;;42.60;18.07;;;;;;;4.00;100.00;101619.28;4960564;28;20220;-73
2022/12/25 05:31:08;;;;;;;42.67;18.20;;;;;;;3.98;100.00;101607.31;4944762;28;20811;-72
2022/12/25 05:33:33;;;;;;;43.50;17.43;;;;;;;4.02;100.00;101599.09;4961946;28;20279;-72
2022/12/25 05:36:07;;;;;;;40.67;17.13;;;;;;;4.03;100.00;101595.78;4961327;28;20315;-72
2022/12/25 05:38:33;;;;;;;41.63;15.80;;;;;;;4.05;100.00;101601.81;4963218;28;20622;-72
2022/12/25 05:40:59;;;;;;;41.43;17.00;;;;;;;4.03;100.00;101595.78;4966871;28;20192;-72
2022/12/25 05:43:26;;;;;;;39.97;16.43;;;;;;;4.02;100.00;101597.44;4964114;28;20253;-72
2022/12/25 05:45:51;;;;;;;42.00;16.50;;;;;;;4.03;100.00;101596.66;4960783;28;20204;-72
2022/12/25 05:48:16;;;;;;;39.87;16.87;;;;;;;4.02;100.00;101599.09;4956703;28;20220;-72
2022/12/25 05:50:42;;;;;;;32.00;15.13;;;;;;;4.00;100.00;101591.41;4958719;28;20231;-73
2022/12/25 05:53:09;;;;;;;38.93;15.33;;;;;;;4.01;100.00;101594.81;4940921;28;20274;-72
2022/12/25 05:55:37;;;;;;;34.03;14.33;;;;;;;4.00;100.00;101605.75;4942251;28;20200;-71
2022/12/25 05:58:03;;;;;;;43.47;16.60;;;;;;;4.02;100.00;101604.16;4963393;28;20229;-72
2022/12/25 06:00:28;;;;;;;37.93;15.60;;;;;;;4.03;100.00;101599.19;4966599;28;20247;-72
2022/12/25 06:02:54;;;;;;;33.70;14.53;;;;;;;4.08;100.00;101600.31;4963777;28;20203;-74
2022/12/25 06:05:19;;;;;;;34.00;15.53;;;;;;;4.10;100.00;101605.50;4965220;28;20196;-70
2022/12/25 06:07:45;;;;;;;39.23;15.60;;;;;;;4.09;100.00;101599.53;4957321;28;20713;-70
2022/12/25 06:10:10;;;;;;;41.63;14.87;;;;;;;4.13;100.00;101610.72;4961602;28;20196;-72
2022/12/25 06:12:36;;;;;;;36.67;15.80;;;;;;;4.16;100.00;101605.81;4959005;28;20733;-72
2022/12/25 06:15:01;;;;;;;42.00;14.97;;;;;;;4.16;100.00;101614.31;4963107;28;20195;-71
2022/12/25 06:17:27;;;;;;;37.77;16.00;;;;;;;4.20;100.00;101620.41;4963431;28;20665;-71
2022/12/25 06:19:53;;;;;;;37.20;14.67;;;;;;;4.22;100.00;101608.69;4964782;28;20304;-71
2022/12/25 06:22:18;;;;;;;37.83;14.60;;;;;;;4.26;100.00;101608.09;4940196;28;20583;-71
2022/12/25 06:24:44;;;;;;;33.83;14.53;;;;;;;4.26;100.00;101610.63;4959402;28;20189;-71
2022/12/25 06:27:09;;;;;;;38.60;14.83;;;;;;;4.28;100.00;101617.53;4960468;28;20319;-71
2022/12/25 06:29:35;;;;;;;35.93;15.30;;;;;;;4.27;100.00;101615.78;4963484;28;20273;-72
2022/12/25 06:32:00;;;;;;;39.40;14.57;;;;;;;4.29;100.00;101615.88;4972905;28;20288;-71
2022/12/25 06:34:26;;;;;;;34.37;13.63;;;;;;;4.29;100.00;101616.75;4964802;28;20291;-72
2022/12/25 06:36:52;;;;;;;33.73;13.83;;;;;;;4.28;100.00;101609.91;4966701;28;20667;-72
2022/12/25 06:39:17;;;;;;;38.23;14.13;;;;;;;4.28;100.00;101607.38;4965006;28;20224;-71
2022/12/25 06:41:43;;;;;;;37.83;15.20;;;;;;;4.22;100.00;101613.75;4968620;28;20196;-72
2022/12/25 06:44:08;;;;;;;37.97;14.17;;;;;;;4.16;100.00;101614.31;4963515;28;20617;-72
2022/12/25 06:46:34;;;;;;;29.63;13.60;;;;;;;4.13;100.00;101616.66;4968882;28;20287;-71
2022/12/25 06:49:00;;;;;;;37.97;13.87;;;;;;;4.13;100.00;101611.59;4965641;28;20224;-71
2022/12/25 06:51:29;;;;;;;38.13;15.60;;;;;;;4.16;100.00;101615.97;4966448;28;20224;-71
2022/12/25 06:53:55;;;;;;;33.80;13.23;;;;;;;4.18;100.00;101620.31;4950429;28;20236;-72
2022/12/25 06:56:23;;;;;;;28.43;13.87;;;;;;;4.18;100.00;101612.72;4967217;28;20205;-71
2022/12/25 06:59:09;;;;;;;33.57;15.37;;;;;;;4.17;100.00;101608.44;4947418;28;20227;-71
2022/12/25 07:01:40;;;;;;;32.50;14.63;;;;;;;4.17;100.00;101602.50;4962888;28;20204;-70
2022/12/25 07:04:12;;;;;;;33.43;15.70;;;;;;;4.18;100.00;101600.06;4965279;28;20204;-70
2022/12/25 07:06:38;;;;;;;29.33;14.43;;;;;;;4.19;100.00;101606.88;4964815;28;20207;-70
2022/12/25 07:09:04;;;;;;;34.07;14.07;;;;;;;4.17;100.00;101610.09;4962697;28;20291;-71
2022/12/25 07:11:29;;;;;;;33.67;13.50;;;;;;;4.15;100.00;101621.81;4964331;28;20235;-72
2022/12/25 07:13:55;;;;;;;35.57;14.37;;;;;;;4.15;100.00;101634.50;4960285;28;20580;-71
2022/12/25 07:16:21;;;;;;;29.77;13.67;;;;;;;4.11;100.00;101641.06;4962689;28;20248;-71
2022/12/25 07:18:47;;;;;;;30.57;12.77;;;;;;;4.12;100.00;101641.91;4962406;28;20693;-71
2022/12/25 07:21:17;;;;;;;28.30;13.17;;;;;;;4.08;100.00;101638.34;4960517;28;20228;-71
2022/12/25 07:23:45;;;;;;;24.60;11.60;;;;;;;4.05;100.00;101634.75;4962021;28;20194;-71
2022/12/25 07:26:11;;;;;;;26.33;11.97;;;;;;;4.05;100.00;101635.59;4964197;28;20239;-71
2022/12/25 07:28:37;;;;;;;30.30;12.17;;;;;;;4.01;100.00;101637.88;4965472;28;20212;-72
2022/12/25 07:31:04;;;;;;;27.33;11.13;;;;;;;4.02;100.00;101629.50;4965900;28;20569;-72
2022/12/25 07:33:31;;;;;;;21.67;11.63;;;;;;;3.96;100.00;101622.41;4949483;28;20216;-72
2022/12/25 07:35:56;;;;;;;27.63;11.40;;;;;;;3.95;100.00;101635.88;4967654;28;20195;-72
2022/12/25 07:38:22;;;;;;;24.70;11.20;;;;;;;3.95;100.00;101635.88;4966222;28;20221;-72
2022/12/25 07:40:47;;;;;;;21.40;10.80;;;;;;;4.02;100.00;101640.53;4966495;28;20188;-72
2022/12/25 07:43:13;;;;;;;19.73;11.07;;;;;;;4.02;100.00;101635.44;4950761;28;20705;-71
2022/12/25 07:45:38;;;;;;;24.47;13.20;;;;;;;4.08;100.00;101637.44;4967577;28;20200;-71
2022/12/25 07:48:04;;;;;;;24.17;11.37;;;;;;;4.12;100.00;101636.84;4965160;28;20222;-71
2022/12/25 07:50:30;;;;;;;26.40;11.73;;;;;;;4.16;100.00;101639.66;4963216;28;20200;-72
2022/12/25 07:52:55;;;;;;;25.03;11.07;;;;;;;4.20;100.00;101640.69;4968047;28;20303;-71
2022/12/25 07:55:21;;;;;;;34.07;11.93;;;;;;;4.26;100.00;101633.44;4966101;28;20331;-71
2022/12/25 07:57:46;;;;;;;27.33;11.70;;;;;;;4.32;100.00;101624.50;4951114;28;20251;-71
2022/12/25 08:00:12;;;;;;;32.43;12.50;;;;;;;4.40;100.00;101625.81;4959937;28;20193;-71
2022/12/25 08:02:38;;;;;;;30.33;11.80;;;;;;;4.44;100.00;101620.16;4971083;28;20228;-71
2022/12/25 08:05:04;;;;;;;27.90;12.03;;;;;;;4.48;100.00;101617.00;4962657;28;20192;-71
2022/12/25 08:07:29;;;;;;;28.30;11.70;;;;;;;4.52;100.00;101618.88;4960709;28;20603;-71
2022/12/25 08:09:55;;;;;;;28.17;12.97;;;;;;;4.55;100.00;101621.59;4962420;28;20299;-71
2022/12/25 08:12:20;;;;;;;34.13;12.30;;;;;;;4.57;100.00;101609.91;4961873;28;20288;-71
2022/12/25 08:14:45;;;;;;;33.17;12.57;;;;;;;4.66;100.00;101620.56;4969124;28;20216;-70
2022/12/25 08:17:11;;;;;;;34.63;12.07;;;;;;;4.67;100.00;101612.16;4964401;28;20662;-71
2022/12/25 08:19:36;;;;;;;30.70;12.07;;;;;;;4.73;100.00;101616.66;4965012;28;20686;-72
2022/12/25 08:22:02;;;;;;;34.37;12.03;;;;;;;4.76;100.00;101594.91;4969949;28;20207;-72
2022/12/25 08:24:27;;;;;;;31.70;12.33;;;;;;;4.82;100.00;101591.78;4964415;28;20199;-71
2022/12/25 08:26:53;;;;;;;35.97;12.23;;;;;;;4.85;100.00;101580.19;4964732;28;20664;-71
2022/12/25 08:29:18;;;;;;;32.90;12.07;;;;;;;4.91;100.00;101582.16;4958081;28;20220;-71
2022/12/25 08:31:44;;;;;;;26.53;12.23;;;;;;;4.97;100.00;101579.97;4970121;28;20283;-71
2022/12/25 08:34:09;;;;;;;36.23;11.80;;;;;;;5.01;100.00;101585.25;4960370;28;20232;-71
2022/12/25 08:36:36;;;;;;;29.53;11.67;;;;;;;5.03;100.00;101583.69;4966083;28;20228;-70
2022/12/25 08:39:03;;;;;;;27.60;12.00;;;;;;;5.08;100.00;101591.53;4966073;28;20216;-72
2022/12/25 08:41:30;;;;;;;29.67;11.20;;;;;;;5.12;100.00;101589.25;4964709;28;20658;-72
2022/12/25 08:43:55;;;;;;;27.27;11.70;;;;;;;5.17;100.00;101595.44;4959553;28;20669;-72
2022/12/25 08:46:21;;;;;;;27.93;11.10;;;;;;;5.20;100.00;101594.72;4962396;28;20304;-72
2022/12/25 08:48:48;;;;;;;33.43;11.07;;;;;;;5.23;100.00;101595.75;4955756;28;20352;-73
2022/12/25 08:51:17;;;;;;;30.97;11.53;;;;;;;5.26;100.00;101593.38;4960567;28;20200;-72
2022/12/25 08:53:44;;;;;;;29.07;12.53;;;;;;;5.31;100.00;101598.69;4966747;28;20591;-69
2022/12/25 08:56:10;;;;;;;26.87;12.70;;;;;;;5.32;100.00;101597.88;4952093;28;20571;-72
2022/12/25 08:58:36;;;;;;;29.13;12.43;;;;;;;5.34;100.00;101604.78;4964974;28;20209;-73
2022/12/25 09:01:02;;;;;;;26.17;12.73;;;;;;;5.36;100.00;101603.22;4967551;28;20584;-72
2022/12/25 09:03:30;;;;;;;28.47;12.03;;;;;;;5.39;100.00;101600.81;4962768;28;20200;-73
2022/12/25 09:06:01;;;;;;;28.07;12.37;;;;;;;5.41;100.00;101604.34;4965529;28;20231;-72
2022/12/25 09:08:27;;;;;;;37.10;12.30;;;;;;;5.41;100.00;101609.41;4963993;28;20231;-72
2022/12/25 09:10:52;;;;;;;30.10;12.63;;;;;;;5.44;100.00;101614.63;4962018;28;20192;-72
2022/12/25 09:13:18;;;;;;;36.80;13.10;;;;;;;5.43;100.00;101612.03;4960034;28;20299;-72
2022/12/25 09:15:43;;;;;;;31.33;12.23;;;;;;;5.46;100.00;101618.13;4963124;28;20211;-72
2022/12/25 09:18:08;;;;;;;35.07;13.03;;;;;;;5.47;100.00;101616.44;4968240;28;20291;-72
2022/12/25 09:20:34;;;;;;;24.77;11.43;;;;;;;5.48;100.00;101614.00;4963309;28;20193;-72
2022/12/25 09:22:59;;;;;;;24.83;11.03;;;;;;;5.50;100.00;101622.59;4964039;28;20655;-71
2022/12/25 09:25:25;;;;;;;23.90;11.37;;;;;;;5.52;100.00;101609.97;4963858;28;20216;-71
2022/12/25 09:27:50;;;;;;;33.47;11.87;;;;;;;5.56;100.00;101607.66;4962656;28;20207;-73
2022/12/25 09:30:15;;;;;;;25.97;11.27;;;;;;;5.59;100.00;101604.41;4961676;28;20288;-73
2022/12/25 09:32:41;;;;;;;26.87;10.50;;;;;;;5.61;100.00;101606.22;4936684;28;20204;-73
2022/12/25 09:35:07;;;;;;;25.20;10.30;;;;;;;5.66;100.00;101611.56;4962030;28;20287;-71
2022/12/25 09:37:33;;;;;;;29.67;12.50;;;;;;;5.68;100.00;101612.47;4942591;28;20228;-72
2022/12/25 09:39:58;;;;;;;30.90;11.97;;;;;;;5.70;100.00;101608.34;4960856;28;20235;-73
2022/12/25 09:42:28;;;;;;;26.30;11.10;;;;;;;5.73;100.00;101606.84;4956492;28;20201;-72
2022/12/25 09:45:03;;;;;;;27.80;11.57;;;;;;;5.73;100.00;101604.31;4956462;28;20242;-72
2022/12/25 09:47:32;;;;;;;31.17;11.43;;;;;;;5.74;100.00;101598.44;4962520;28;20319;-72
2022/12/25 09:50:15;;;;;;;26.07;10.80;;;;;;;5.78;100.00;101605.41;4961991;28;20302;-73
2022/12/25 09:52:50;;;;;;;23.87;11.67;;;;;;;5.77;100.00;101597.72;4964166;28;20207;-73
2022/12/25 09:55:21;;;;;;;31.93;11.13;;;;;;;5.78;100.00;101602.88;4961677;28;20665;-74
2022/12/25 09:57:51;;;;;;;29.77;11.63;;;;;;;5.81;100.00;101602.19;4961374;28;20192;-73
2022/12/25 10:00:19;;;;;;;27.83;11.40;;;;;;;5.85;100.00;101602.41;4959972;28;20196;-73
2022/12/25 10:03:22;;;;;;;28.33;12.10;;;;;;;5.88;100.00;101606.75;4943576;28;20333;-73
2022/12/25 10:06:21;;;;;;;29.13;11.00;;;;;;;5.93;100.00;101610.41;4948836;28;20220;-73
2022/12/25 10:09:22;;;;;;;25.13;10.83;;;;;;;5.95;100.00;101619.00;4964198;28;20240;-72
2022/12/25 10:11:59;;;;;;;26.07;10.67;;;;;;;5.99;100.00;101615.81;4936706;28;20659;-73
2022/12/25 10:14:57;;;;;;;24.50;10.97;;;;;;;5.98;100.00;101604.75;4965286;28;20224;-72
2022/12/25 10:17:36;;;;;;;30.77;11.90;;;;;;;6.02;100.00;101595.63;4967263;28;20200;-72
2022/12/25 10:20:12;;;;;;;29.00;10.47;;;;;;;6.02;100.00;101593.97;4942652;28;20326;-72
2022/12/25 10:22:45;;;;;;;29.73;11.60;;;;;;;6.04;100.00;101594.88;4958179;28;20856;-72
2022/12/25 10:25:19;;;;;;;27.57;11.47;;;;;;;6.03;100.00;101592.31;4952980;28;20211;-72
2022/12/25 10:27:50;;;;;;;27.60;11.87;;;;;;;6.03;100.00;101589.75;4966817;28;20666;-72
2022/12/25 10:30:19;;;;;;;26.40;11.47;;;;;;;6.04;100.00;101578.78;4945960;28;20196;-73
2022/12/25 10:32:45;;;;;;;21.53;11.37;;;;;;;6.07;100.00;101558.59;4949714;28;20251;-73
2022/12/25 10:35:14;;;;;;;30.73;11.67;;;;;;;6.09;100.00;101552.81;4967089;28;20235;-72
2022/12/25 10:37:41;;;;;;;26.87;12.73;;;;;;;6.11;100.00;101553.72;4966808;28;20655;-72
2022/12/25 10:40:21;;;;;;;26.17;12.10;;;;;;;6.14;100.00;101553.00;4967749;28;20231;-73
2022/12/25 10:42:55;;;;;;;23.83;11.70;;;;;;;6.15;100.00;101539.50;4964774;28;20196;-71
2022/12/25 10:45:20;;;;;;;20.63;11.07;;;;;;;6.15;100.00;101537.84;4965840;28;20200;-72
2022/12/25 10:47:46;;;;;;;25.87;11.63;;;;;;;6.17;100.00;101522.66;4962774;28;20693;-74
2022/12/25 10:50:24;;;;;;;33.00;12.30;;;;;;;6.18;100.00;101524.41;4948106;28;20196;-74
2022/12/25 10:53:03;;;;;;;30.10;12.13;;;;;;;6.20;100.00;101517.69;4964316;28;20229;-73
2022/12/25 10:55:29;;;;;;;23.13;11.37;;;;;;;6.24;100.00;101523.03;4968704;28;20568;-73
2022/12/25 10:57:56;;;;;;;30.97;10.87;;;;;;;6.24;100.00;101520.47;4969143;28;20227;-72
2022/12/25 11:00:27;;;;;;;23.20;11.17;;;;;;;6.29;100.00;101515.59;4971188;28;20239;-72
2022/12/25 11:02:53;;;;;;;26.03;12.00;;;;;;;6.32;100.00;101506.47;4967843;28;20192;-73
2022/12/25 11:05:29;;;;;;;30.90;11.90;;;;;;;6.36;100.00;101508.31;4956956;28;20748;-73
2022/12/25 11:07:55;;;;;;;25.43;11.77;;;;;;;6.38;100.00;101505.84;4967781;28;20262;-73
2022/12/25 11:10:29;;;;;;;23.67;11.67;;;;;;;6.40;100.00;101501.72;4963873;28;20212;-74
2022/12/25 11:12:55;;;;;;;30.83;12.13;;;;;;;6.41;100.00;101490.75;4946072;28;20196;-73
2022/12/25 11:15:30;;;;;;;25.90;11.53;;;;;;;6.45;100.00;101487.53;4961896;28;20765;-73
2022/12/25 11:17:55;;;;;;;25.17;11.50;;;;;;;6.44;100.00;101494.28;4966581;28;20196;-73
2022/12/25 11:20:21;;;;;;;28.27;12.33;;;;;;;6.46;100.00;101484.19;4965299;28;20239;-72
2022/12/25 11:22:48;;;;;;;30.23;12.37;;;;;;;6.48;100.00;101468.19;4947131;28;20508;-73
2022/12/25 11:25:21;;;;;;;26.73;11.77;;;;;;;6.50;100.00;101456.41;4962721;28;20200;-72
2022/12/25 11:28:02;;;;;;;27.43;11.80;;;;;;;6.54;100.00;101459.97;4964273;28;20193;-73
2022/12/25 11:30:29;;;;;;;25.37;11.80;;;;;;;6.56;100.00;101476.16;4964946;28;20232;-73
2022/12/25 11:32:58;;;;;;;24.60;11.57;;;;;;;6.57;100.00;101466.06;4971607;28;20196;-72
2022/12/25 11:35:30;;;;;;;31.90;13.07;;;;;;;6.59;100.00;101464.44;4965275;28;20203;-73
2022/12/25 11:37:56;;;;;;;24.00;11.90;;;;;;;6.61;100.00;101457.78;4967573;28;20200;-73
2022/12/25 11:40:26;;;;;;;26.87;12.07;;;;;;;6.61;100.00;101450.16;4968013;28;20668;-73
2022/12/25 11:42:57;;;;;;;24.20;11.23;;;;;;;6.62;100.00;101464.59;4969357;28;20196;-73
2022/12/25 11:45:25;;;;;;;28.60;12.10;;;;;;;6.67;100.00;101459.69;4966617;28;20287;-72
2022/12/25 11:48:09;;;;;;;24.83;11.83;;;;;;;6.65;100.00;101471.50;4967527;28;20197;-72
2022/12/25 11:50:40;;;;;;;28.03;12.33;;;;;;;6.67;100.00;101469.88;4963603;28;20292;-73
2022/12/25 11:53:18;;;;;;;31.40;12.53;;;;;;;6.67;100.00;101452.94;4959866;28;20255;-72
2022/12/25 11:55:55;;;;;;;26.00;11.30;;;;;;;6.70;100.00;101442.03;4950258;28;20573;-72
2022/12/25 11:58:42;;;;;;;29.57;11.70;;;;;;;6.70;100.00;101445.47;4927540;28;20219;-72
2022/12/25 12:01:17;;;;;;;26.93;11.57;;;;;;;6.70;100.00;101459.84;4957735;28;20283;-72
2022/12/25 12:03:43;;;;;;;30.33;11.23;;;;;;;6.72;100.00;101471.00;4973197;28;20688;-72
2022/12/25 12:06:15;;;;;;;23.63;12.17;;;;;;;6.75;100.00;101476.19;4964972;28;20662;-72
2022/12/25 12:08:41;;;;;;;23.90;11.97;;;;;;;6.77;100.00;101484.78;4970562;28;20220;-72
2022/12/25 12:11:16;;;;;;;26.77;12.03;;;;;;;6.75;100.00;101489.78;4966681;28;20204;-73
2022/12/25 12:13:50;;;;;;;30.47;11.47;;;;;;;6.75;100.00;101477.06;4967216;28;20630;-72
2022/12/25 12:16:16;;;;;;;28.53;12.43;;;;;;;6.76;100.00;101480.47;4969192;28;20203;-72
2022/12/25 12:18:41;;;;;;;27.90;11.43;;;;;;;6.75;100.00;101477.06;4964055;28;20217;-72
2022/12/25 12:21:21;;;;;;;23.97;12.37;;;;;;;6.75;100.00;101469.44;4969393;28;20251;-73
2022/12/25 12:24:14;;;;;;;23.87;11.43;;;;;;;6.76;100.00;101463.53;4949389;28;20192;-72
2022/12/25 12:26:42;;;;;;;24.03;11.33;;;;;;;6.80;100.00;101464.53;4968173;28;20232;-72
2022/12/25 12:29:24;;;;;;;28.47;12.27;;;;;;;6.80;100.00;101459.44;4951444;28;20227;-72
2022/12/25 12:31:51;;;;;;;24.67;12.10;;;;;;;6.80;100.00;101447.59;4965396;28;20332;-73
2022/12/25 12:34:41;;;;;;;27.30;13.10;;;;;;;6.83;100.00;101439.22;4968940;28;20246;-73
2022/12/25 12:37:15;;;;;;;26.17;12.33;;;;;;;6.85;100.00;101435.06;4969873;28;20259;-72
2022/12/25 12:39:41;;;;;;;25.53;12.50;;;;;;;6.82;100.00;101430.72;4964364;28;20910;-72
2022/12/25 12:42:16;;;;;;;24.40;12.30;;;;;;;6.82;100.00;101433.25;4955790;28;20208;-72
2022/12/25 12:44:44;;;;;;;33.63;12.37;;;;;;;6.80;100.00;101434.88;4965961;28;20184;-73
2022/12/25 12:47:48;;;;;;;27.67;12.03;;;;;;;6.82;100.00;101419.69;4950439;28;20192;-72
2022/12/25 12:50:29;;;;;;;26.03;12.27;;;;;;;6.80;100.00;101418.72;4961021;28;20209;-72
2022/12/25 12:52:55;;;;;;;31.40;12.63;;;;;;;6.80;100.00;101418.72;4967205;28;20238;-74
2022/12/25 12:55:32;;;;;;;26.73;11.93;;;;;;;6.81;100.00;101415.41;4965218;28;20283;-72
2022/12/25 12:58:03;;;;;;;32.33;12.20;;;;;;;6.83;100.00;101412.13;4964534;28;20188;-74
2022/12/25 13:00:41;;;;;;;20.47;11.53;;;;;;;6.84;100.00;101408.78;4939763;28;20560;-72
2022/12/25 13:03:27;;;;;;;26.13;12.57;;;;;;;6.86;100.00;101394.41;4968476;28;20201;-72
2022/12/25 13:05:59;;;;;;;26.40;12.47;;;;;;;6.83;100.00;101389.22;4966706;28;20207;-72
2022/12/25 13:08:50;;;;;;;25.63;11.47;;;;;;;6.82;100.00;101366.25;4965185;28;20220;-72